sensor_id;sensor_type;location;lat;lon;timestamp;P1;durP1;ratioP1;P2;durP2;ratioP2
51915;SDS011;37942;53.218;6.548;2022-07-29T00:00:49;6.45;;;2.30;;
51915;SDS011;37942;53.218;6.548;2022-07-29T00:03:15;7.55;;;2.65;;
51915;SDS011;37942;53.218;6.548;2022-07-29T00:05:41;6.63;;;2.30;;
51915;SDS011;37942;53.218;6.548;2022-07-29T00:08:07;7.68;;;2.25;;
51915;SDS011;37942;53.218;6.548;2022-07-29T00:10:34;9.00;;;2.40;;
51915;SDS011;37942;53.218;6.548;2022-07-29T00:13:00;8.45;;;2.65;;
51915;SDS011;37942;53.218;6.548;2022-07-29T00:15:26;9.70;;;2.60;;
51915;SDS011;37942;53.218;6.548;2022-07-29T00:17:52;8.98;;;2.55;;
51915;SDS011;37942;53.218;6.548;2022-07-29T00:20:18;9.13;;;2.60;;
51915;SDS011;37942;53.218;6.548;2022-07-29T00:22:44;9.10;;;2.60;;
51915;SDS011;37942;53.218;6.548;2022-07-29T00:25:11;8.25;;;2.70;;
51915;SDS011;37942;53.218;6.548;2022-07-29T00:27:37;7.18;;;2.83;;
51915;SDS011;37942;53.218;6.548;2022-07-29T00:30:04;7.40;;;2.50;;
51915;SDS011;37942;53.218;6.548;2022-07-29T00:32:30;9.80;;;2.50;;
51915;SDS011;37942;53.218;6.548;2022-07-29T00:34:56;8.23;;;2.70;;
51915;SDS011;37942;53.218;6.548;2022-07-29T00:37:41;10.48;;;2.90;;
51915;SDS011;37942;53.218;6.548;2022-07-29T00:40:07;8.95;;;2.38;;
51915;SDS011;37942;53.218;6.548;2022-07-29T00:44:59;8.93;;;2.75;;
51915;SDS011;37942;53.218;6.548;2022-07-29T00:47:25;6.82;;;2.30;;
51915;SDS011;37942;53.218;6.548;2022-07-29T00:49:51;9.65;;;3.28;;
51915;SDS011;37942;53.218;6.548;2022-07-29T00:52:17;8.95;;;2.97;;
51915;SDS011;37942;53.218;6.548;2022-07-29T00:54:43;9.20;;;2.75;;
51915;SDS011;37942;53.218;6.548;2022-07-29T00:57:09;9.60;;;2.70;;
51915;SDS011;37942;53.218;6.548;2022-07-29T00:59:35;7.75;;;2.50;;
51915;SDS011;37942;53.218;6.548;2022-07-29T01:02:02;7.20;;;2.58;;
51915;SDS011;37942;53.218;6.548;2022-07-29T01:04:28;7.22;;;2.50;;
51915;SDS011;37942;53.218;6.548;2022-07-29T01:06:54;8.65;;;2.70;;
51915;SDS011;37942;53.218;6.548;2022-07-29T01:11:46;10.30;;;2.95;;
51915;SDS011;37942;53.218;6.548;2022-07-29T01:14:13;10.80;;;2.92;;
51915;SDS011;37942;53.218;6.548;2022-07-29T01:16:50;8.35;;;2.50;;
51915;SDS011;37942;53.218;6.548;2022-07-29T01:19:26;7.82;;;2.40;;
51915;SDS011;37942;53.218;6.548;2022-07-29T01:21:59;10.02;;;2.75;;
51915;SDS011;37942;53.218;6.548;2022-07-29T01:24:33;9.55;;;3.00;;
51915;SDS011;37942;53.218;6.548;2022-07-29T01:27:14;7.70;;;2.50;;
51915;SDS011;37942;53.218;6.548;2022-07-29T01:29:45;7.13;;;2.53;;
51915;SDS011;37942;53.218;6.548;2022-07-29T01:32:18;8.15;;;2.90;;
51915;SDS011;37942;53.218;6.548;2022-07-29T01:37:24;7.72;;;2.60;;
51915;SDS011;37942;53.218;6.548;2022-07-29T01:39:51;9.98;;;2.80;;
51915;SDS011;37942;53.218;6.548;2022-07-29T01:45:06;6.82;;;2.22;;
51915;SDS011;37942;53.218;6.548;2022-07-29T01:47:44;8.75;;;2.67;;
51915;SDS011;37942;53.218;6.548;2022-07-29T01:50:14;11.95;;;2.80;;
51915;SDS011;37942;53.218;6.548;2022-07-29T01:52:46;7.75;;;2.53;;
51915;SDS011;37942;53.218;6.548;2022-07-29T01:55:15;10.95;;;2.90;;
51915;SDS011;37942;53.218;6.548;2022-07-29T01:57:42;9.80;;;2.88;;
51915;SDS011;37942;53.218;6.548;2022-07-29T02:00:08;6.78;;;2.25;;
51915;SDS011;37942;53.218;6.548;2022-07-29T02:02:35;8.02;;;2.80;;
51915;SDS011;37942;53.218;6.548;2022-07-29T02:05:03;12.68;;;3.05;;
51915;SDS011;37942;53.218;6.548;2022-07-29T02:07:31;9.43;;;2.70;;
51915;SDS011;37942;53.218;6.548;2022-07-29T02:09:58;9.18;;;2.55;;
51915;SDS011;37942;53.218;6.548;2022-07-29T02:12:26;10.80;;;3.17;;
51915;SDS011;37942;53.218;6.548;2022-07-29T02:14:53;6.80;;;2.33;;
51915;SDS011;37942;53.218;6.548;2022-07-29T02:17:21;10.05;;;3.00;;
51915;SDS011;37942;53.218;6.548;2022-07-29T02:19:48;9.43;;;2.75;;
51915;SDS011;37942;53.218;6.548;2022-07-29T02:22:14;8.93;;;2.60;;
51915;SDS011;37942;53.218;6.548;2022-07-29T02:24:41;11.45;;;2.90;;
51915;SDS011;37942;53.218;6.548;2022-07-29T02:27:08;8.82;;;2.65;;
51915;SDS011;37942;53.218;6.548;2022-07-29T02:29:35;9.43;;;2.70;;
51915;SDS011;37942;53.218;6.548;2022-07-29T02:32:02;10.25;;;3.00;;
51915;SDS011;37942;53.218;6.548;2022-07-29T02:34:29;14.30;;;3.22;;
51915;SDS011;37942;53.218;6.548;2022-07-29T02:36:55;9.55;;;2.75;;
51915;SDS011;37942;53.218;6.548;2022-07-29T02:41:48;7.63;;;2.38;;
51915;SDS011;37942;53.218;6.548;2022-07-29T02:44:23;9.30;;;2.70;;
51915;SDS011;37942;53.218;6.548;2022-07-29T02:47:00;9.50;;;2.85;;
51915;SDS011;37942;53.218;6.548;2022-07-29T02:49:34;10.35;;;3.15;;
51915;SDS011;37942;53.218;6.548;2022-07-29T02:52:01;10.05;;;2.80;;
51915;SDS011;37942;53.218;6.548;2022-07-29T02:57:23;9.93;;;2.72;;
51915;SDS011;37942;53.218;6.548;2022-07-29T02:59:51;8.13;;;2.85;;
51915;SDS011;37942;53.218;6.548;2022-07-29T03:02:18;10.25;;;2.92;;
51915;SDS011;37942;53.218;6.548;2022-07-29T03:04:46;9.15;;;2.72;;
51915;SDS011;37942;53.218;6.548;2022-07-29T03:07:14;10.98;;;3.03;;
51915;SDS011;37942;53.218;6.548;2022-07-29T03:09:41;10.63;;;2.85;;
51915;SDS011;37942;53.218;6.548;2022-07-29T03:12:08;11.57;;;2.70;;
51915;SDS011;37942;53.218;6.548;2022-07-29T03:14:34;7.40;;;2.58;;
51915;SDS011;37942;53.218;6.548;2022-07-29T03:17:01;10.00;;;3.95;;
51915;SDS011;37942;53.218;6.548;2022-07-29T03:19:28;10.82;;;3.38;;
51915;SDS011;37942;53.218;6.548;2022-07-29T03:24:33;11.20;;;3.00;;
51915;SDS011;37942;53.218;6.548;2022-07-29T03:26:59;8.30;;;2.67;;
51915;SDS011;37942;53.218;6.548;2022-07-29T03:31:51;10.75;;;2.80;;
51915;SDS011;37942;53.218;6.548;2022-07-29T03:34:18;11.43;;;2.70;;
51915;SDS011;37942;53.218;6.548;2022-07-29T03:36:44;10.65;;;2.70;;
51915;SDS011;37942;53.218;6.548;2022-07-29T03:39:10;8.48;;;2.92;;
51915;SDS011;37942;53.218;6.548;2022-07-29T03:41:38;9.07;;;2.95;;
51915;SDS011;37942;53.218;6.548;2022-07-29T03:44:06;9.07;;;3.17;;
51915;SDS011;37942;53.218;6.548;2022-07-29T03:46:33;10.63;;;3.22;;
51915;SDS011;37942;53.218;6.548;2022-07-29T03:49:01;9.13;;;3.00;;
51915;SDS011;37942;53.218;6.548;2022-07-29T03:51:28;10.30;;;3.22;;
51915;SDS011;37942;53.218;6.548;2022-07-29T03:53:54;8.90;;;2.83;;
51915;SDS011;37942;53.218;6.548;2022-07-29T03:56:21;9.27;;;3.30;;
51915;SDS011;37942;53.218;6.548;2022-07-29T03:58:50;10.43;;;3.30;;
51915;SDS011;37942;53.218;6.548;2022-07-29T04:01:17;12.35;;;3.03;;
51915;SDS011;37942;53.218;6.548;2022-07-29T04:03:44;7.70;;;2.42;;
51915;SDS011;37942;53.218;6.548;2022-07-29T04:06:10;9.45;;;2.83;;
51915;SDS011;37942;53.218;6.548;2022-07-29T04:08:37;11.07;;;3.28;;
51915;SDS011;37942;53.218;6.548;2022-07-29T04:13:29;12.80;;;3.15;;
51915;SDS011;37942;53.218;6.548;2022-07-29T04:18:21;14.45;;;3.75;;
51915;SDS011;37942;53.218;6.548;2022-07-29T04:20:47;11.27;;;3.03;;
51915;SDS011;37942;53.218;6.548;2022-07-29T04:23:13;9.45;;;3.00;;
51915;SDS011;37942;53.218;6.548;2022-07-29T04:25:39;9.23;;;2.88;;
51915;SDS011;37942;53.218;6.548;2022-07-29T04:28:06;9.82;;;2.95;;
51915;SDS011;37942;53.218;6.548;2022-07-29T04:30:33;9.88;;;2.90;;
51915;SDS011;37942;53.218;6.548;2022-07-29T04:32:59;9.60;;;3.42;;
51915;SDS011;37942;53.218;6.548;2022-07-29T04:35:26;10.73;;;3.65;;
51915;SDS011;37942;53.218;6.548;2022-07-29T04:37:52;10.18;;;3.00;;
51915;SDS011;37942;53.218;6.548;2022-07-29T04:40:18;11.75;;;3.53;;
51915;SDS011;37942;53.218;6.548;2022-07-29T04:42:44;9.57;;;3.13;;
51915;SDS011;37942;53.218;6.548;2022-07-29T04:45:10;10.55;;;3.10;;
51915;SDS011;37942;53.218;6.548;2022-07-29T04:47:36;9.82;;;3.08;;
51915;SDS011;37942;53.218;6.548;2022-07-29T04:52:30;10.25;;;2.92;;
51915;SDS011;37942;53.218;6.548;2022-07-29T04:54:56;8.70;;;2.92;;
51915;SDS011;37942;53.218;6.548;2022-07-29T04:57:22;9.32;;;3.10;;
51915;SDS011;37942;53.218;6.548;2022-07-29T04:59:48;8.48;;;2.88;;
51915;SDS011;37942;53.218;6.548;2022-07-29T05:02:14;10.07;;;3.42;;
51915;SDS011;37942;53.218;6.548;2022-07-29T05:04:40;10.23;;;3.08;;
51915;SDS011;37942;53.218;6.548;2022-07-29T05:07:06;7.30;;;2.80;;
51915;SDS011;37942;53.218;6.548;2022-07-29T05:09:32;8.13;;;2.90;;
51915;SDS011;37942;53.218;6.548;2022-07-29T05:11:58;13.10;;;3.03;;
51915;SDS011;37942;53.218;6.548;2022-07-29T05:14:24;10.43;;;3.00;;
51915;SDS011;37942;53.218;6.548;2022-07-29T05:16:50;15.65;;;3.42;;
51915;SDS011;37942;53.218;6.548;2022-07-29T05:19:17;12.02;;;3.20;;
51915;SDS011;37942;53.218;6.548;2022-07-29T05:21:44;9.07;;;2.95;;
51915;SDS011;37942;53.218;6.548;2022-07-29T05:24:10;12.85;;;3.42;;
51915;SDS011;37942;53.218;6.548;2022-07-29T05:26:36;12.32;;;3.05;;
51915;SDS011;37942;53.218;6.548;2022-07-29T05:29:02;11.48;;;2.70;;
51915;SDS011;37942;53.218;6.548;2022-07-29T05:31:28;8.85;;;3.08;;
51915;SDS011;37942;53.218;6.548;2022-07-29T05:33:54;11.23;;;3.85;;
51915;SDS011;37942;53.218;6.548;2022-07-29T05:36:20;9.63;;;3.33;;
51915;SDS011;37942;53.218;6.548;2022-07-29T05:38:46;8.48;;;3.00;;
51915;SDS011;37942;53.218;6.548;2022-07-29T05:41:12;12.13;;;3.33;;
51915;SDS011;37942;53.218;6.548;2022-07-29T05:43:38;9.60;;;3.45;;
51915;SDS011;37942;53.218;6.548;2022-07-29T05:46:04;10.75;;;3.28;;
51915;SDS011;37942;53.218;6.548;2022-07-29T05:48:30;7.78;;;2.83;;
51915;SDS011;37942;53.218;6.548;2022-07-29T05:50:57;9.80;;;2.88;;
51915;SDS011;37942;53.218;6.548;2022-07-29T05:53:23;9.48;;;3.10;;
51915;SDS011;37942;53.218;6.548;2022-07-29T05:55:49;11.35;;;2.78;;
51915;SDS011;37942;53.218;6.548;2022-07-29T05:58:15;10.95;;;2.83;;
51915;SDS011;37942;53.218;6.548;2022-07-29T06:00:41;14.02;;;3.38;;
51915;SDS011;37942;53.218;6.548;2022-07-29T06:03:07;8.48;;;3.03;;
51915;SDS011;37942;53.218;6.548;2022-07-29T06:05:33;9.07;;;2.97;;
51915;SDS011;37942;53.218;6.548;2022-07-29T06:07:59;9.55;;;3.03;;
51915;SDS011;37942;53.218;6.548;2022-07-29T06:10:25;10.90;;;3.08;;
51915;SDS011;37942;53.218;6.548;2022-07-29T06:12:51;8.68;;;3.00;;
51915;SDS011;37942;53.218;6.548;2022-07-29T06:15:18;9.85;;;3.30;;
51915;SDS011;37942;53.218;6.548;2022-07-29T06:17:44;13.10;;;3.40;;
51915;SDS011;37942;53.218;6.548;2022-07-29T06:20:10;9.82;;;2.97;;
51915;SDS011;37942;53.218;6.548;2022-07-29T06:22:36;8.85;;;2.80;;
51915;SDS011;37942;53.218;6.548;2022-07-29T06:25:02;10.57;;;3.03;;
51915;SDS011;37942;53.218;6.548;2022-07-29T06:27:28;10.63;;;3.08;;
51915;SDS011;37942;53.218;6.548;2022-07-29T06:32:20;10.52;;;3.05;;
51915;SDS011;37942;53.218;6.548;2022-07-29T06:37:13;13.85;;;3.17;;
51915;SDS011;37942;53.218;6.548;2022-07-29T06:39:39;9.27;;;3.42;;
51915;SDS011;37942;53.218;6.548;2022-07-29T06:42:05;11.63;;;3.10;;
51915;SDS011;37942;53.218;6.548;2022-07-29T06:44:32;13.35;;;3.20;;
51915;SDS011;37942;53.218;6.548;2022-07-29T06:47:00;10.35;;;3.25;;
51915;SDS011;37942;53.218;6.548;2022-07-29T06:51:53;13.82;;;3.13;;
51915;SDS011;37942;53.218;6.548;2022-07-29T06:54:19;12.07;;;3.70;;
51915;SDS011;37942;53.218;6.548;2022-07-29T06:56:45;10.40;;;2.78;;
51915;SDS011;37942;53.218;6.548;2022-07-29T07:01:38;13.38;;;3.25;;
51915;SDS011;37942;53.218;6.548;2022-07-29T07:04:04;10.32;;;3.10;;
51915;SDS011;37942;53.218;6.548;2022-07-29T07:06:30;11.98;;;3.05;;
51915;SDS011;37942;53.218;6.548;2022-07-29T07:08:56;10.55;;;3.05;;
51915;SDS011;37942;53.218;6.548;2022-07-29T07:11:22;10.80;;;3.17;;
51915;SDS011;37942;53.218;6.548;2022-07-29T07:16:14;9.85;;;3.10;;
51915;SDS011;37942;53.218;6.548;2022-07-29T07:18:41;10.75;;;3.38;;
51915;SDS011;37942;53.218;6.548;2022-07-29T07:21:07;11.70;;;3.60;;
51915;SDS011;37942;53.218;6.548;2022-07-29T07:23:33;11.40;;;3.42;;
51915;SDS011;37942;53.218;6.548;2022-07-29T07:28:25;10.63;;;3.53;;
51915;SDS011;37942;53.218;6.548;2022-07-29T07:30:51;8.57;;;3.10;;
51915;SDS011;37942;53.218;6.548;2022-07-29T07:35:43;10.45;;;3.03;;
51915;SDS011;37942;53.218;6.548;2022-07-29T07:40:35;12.07;;;3.33;;
51915;SDS011;37942;53.218;6.548;2022-07-29T07:43:02;14.30;;;3.30;;
51915;SDS011;37942;53.218;6.548;2022-07-29T07:47:54;12.57;;;3.08;;
51915;SDS011;37942;53.218;6.548;2022-07-29T07:50:20;9.75;;;3.53;;
51915;SDS011;37942;53.218;6.548;2022-07-29T07:52:50;13.70;;;3.30;;
51915;SDS011;37942;53.218;6.548;2022-07-29T07:55:16;15.82;;;3.70;;
51915;SDS011;37942;53.218;6.548;2022-07-29T08:00:09;10.00;;;3.40;;
51915;SDS011;37942;53.218;6.548;2022-07-29T08:02:35;16.55;;;3.70;;
51915;SDS011;37942;53.218;6.548;2022-07-29T08:05:01;9.52;;;3.33;;
51915;SDS011;37942;53.218;6.548;2022-07-29T08:09:54;13.60;;;3.47;;
51915;SDS011;37942;53.218;6.548;2022-07-29T08:12:20;8.52;;;3.22;;
51915;SDS011;37942;53.218;6.548;2022-07-29T08:14:46;9.95;;;2.97;;
51915;SDS011;37942;53.218;6.548;2022-07-29T08:19:38;10.43;;;3.58;;
51915;SDS011;37942;53.218;6.548;2022-07-29T08:22:04;10.63;;;3.05;;
51915;SDS011;37942;53.218;6.548;2022-07-29T08:24:30;10.85;;;3.40;;
51915;SDS011;37942;53.218;6.548;2022-07-29T08:27:09;11.27;;;3.28;;
51915;SDS011;37942;53.218;6.548;2022-07-29T08:29:36;9.20;;;3.17;;
51915;SDS011;37942;53.218;6.548;2022-07-29T08:34:28;10.90;;;3.35;;
51915;SDS011;37942;53.218;6.548;2022-07-29T08:36:54;10.50;;;3.75;;
51915;SDS011;37942;53.218;6.548;2022-07-29T08:39:21;13.70;;;3.70;;
51915;SDS011;37942;53.218;6.548;2022-07-29T08:41:47;13.20;;;3.45;;
51915;SDS011;37942;53.218;6.548;2022-07-29T08:44:15;12.95;;;3.90;;
51915;SDS011;37942;53.218;6.548;2022-07-29T08:46:42;15.48;;;3.53;;
51915;SDS011;37942;53.218;6.548;2022-07-29T08:49:08;13.93;;;3.58;;
51915;SDS011;37942;53.218;6.548;2022-07-29T08:51:34;15.90;;;3.78;;
51915;SDS011;37942;53.218;6.548;2022-07-29T08:54:02;11.48;;;3.28;;
51915;SDS011;37942;53.218;6.548;2022-07-29T08:56:28;11.68;;;3.60;;
51915;SDS011;37942;53.218;6.548;2022-07-29T08:58:54;13.02;;;3.60;;
51915;SDS011;37942;53.218;6.548;2022-07-29T09:01:23;15.07;;;3.75;;
51915;SDS011;37942;53.218;6.548;2022-07-29T09:03:49;11.43;;;3.67;;
51915;SDS011;37942;53.218;6.548;2022-07-29T09:08:41;10.65;;;3.50;;
51915;SDS011;37942;53.218;6.548;2022-07-29T09:11:08;12.32;;;3.63;;
51915;SDS011;37942;53.218;6.548;2022-07-29T09:13:34;10.75;;;3.20;;
51915;SDS011;37942;53.218;6.548;2022-07-29T09:16:01;18.10;;;3.85;;
51915;SDS011;37942;53.218;6.548;2022-07-29T09:21:00;10.90;;;3.75;;
51915;SDS011;37942;53.218;6.548;2022-07-29T09:26:29;12.57;;;3.90;;
51915;SDS011;37942;53.218;6.548;2022-07-29T09:28:56;10.93;;;3.45;;
51915;SDS011;37942;53.218;6.548;2022-07-29T09:31:27;10.90;;;3.70;;
51915;SDS011;37942;53.218;6.548;2022-07-29T09:33:58;13.98;;;4.35;;
51915;SDS011;37942;53.218;6.548;2022-07-29T09:36:25;12.23;;;4.00;;
51915;SDS011;37942;53.218;6.548;2022-07-29T09:38:58;11.27;;;3.90;;
51915;SDS011;37942;53.218;6.548;2022-07-29T09:41:25;11.75;;;3.70;;
51915;SDS011;37942;53.218;6.548;2022-07-29T09:43:55;12.05;;;4.20;;
51915;SDS011;37942;53.218;6.548;2022-07-29T09:46:21;13.40;;;4.00;;
51915;SDS011;37942;53.218;6.548;2022-07-29T09:49:10;10.18;;;3.70;;
51915;SDS011;37942;53.218;6.548;2022-07-29T09:51:36;11.40;;;3.63;;
51915;SDS011;37942;53.218;6.548;2022-07-29T09:56:51;11.75;;;4.00;;
51915;SDS011;37942;53.218;6.548;2022-07-29T09:59:17;12.52;;;3.70;;
51915;SDS011;37942;53.218;6.548;2022-07-29T10:01:45;12.90;;;3.50;;
51915;SDS011;37942;53.218;6.548;2022-07-29T10:04:11;13.13;;;3.53;;
51915;SDS011;37942;53.218;6.548;2022-07-29T10:09:07;11.45;;;4.10;;
51915;SDS011;37942;53.218;6.548;2022-07-29T10:11:34;13.00;;;4.18;;
51915;SDS011;37942;53.218;6.548;2022-07-29T10:16:26;12.52;;;3.95;;
51915;SDS011;37942;53.218;6.548;2022-07-29T10:18:57;14.45;;;4.03;;
51915;SDS011;37942;53.218;6.548;2022-07-29T10:21:24;11.93;;;3.80;;
51915;SDS011;37942;53.218;6.548;2022-07-29T10:23:50;12.43;;;3.90;;
51915;SDS011;37942;53.218;6.548;2022-07-29T10:26:16;13.00;;;3.58;;
51915;SDS011;37942;53.218;6.548;2022-07-29T10:28:43;13.30;;;4.07;;
51915;SDS011;37942;53.218;6.548;2022-07-29T10:31:11;15.40;;;3.55;;
51915;SDS011;37942;53.218;6.548;2022-07-29T10:36:20;11.77;;;3.60;;
51915;SDS011;37942;53.218;6.548;2022-07-29T10:41:36;9.20;;;3.60;;
51915;SDS011;37942;53.218;6.548;2022-07-29T10:44:18;13.60;;;3.97;;
51915;SDS011;37942;53.218;6.548;2022-07-29T10:46:44;11.52;;;3.72;;
51915;SDS011;37942;53.218;6.548;2022-07-29T10:49:12;10.98;;;4.00;;
51915;SDS011;37942;53.218;6.548;2022-07-29T10:51:58;15.73;;;3.90;;
51915;SDS011;37942;53.218;6.548;2022-07-29T10:59:42;11.55;;;3.88;;
51915;SDS011;37942;53.218;6.548;2022-07-29T11:07:19;13.55;;;4.13;;
51915;SDS011;37942;53.218;6.548;2022-07-29T11:10:07;12.05;;;4.45;;
51915;SDS011;37942;53.218;6.548;2022-07-29T11:15:03;14.05;;;4.35;;
51915;SDS011;37942;53.218;6.548;2022-07-29T11:22:57;12.38;;;4.70;;
51915;SDS011;37942;53.218;6.548;2022-07-29T11:27:49;11.82;;;4.20;;
51915;SDS011;37942;53.218;6.548;2022-07-29T11:30:15;16.30;;;5.05;;
51915;SDS011;37942;53.218;6.548;2022-07-29T11:37:36;14.07;;;4.65;;
51915;SDS011;37942;53.218;6.548;2022-07-29T11:44:55;13.13;;;4.40;;
51915;SDS011;37942;53.218;6.548;2022-07-29T11:47:21;15.73;;;4.60;;
51915;SDS011;37942;53.218;6.548;2022-07-29T11:49:48;14.13;;;4.60;;
51915;SDS011;37942;53.218;6.548;2022-07-29T11:52:15;13.60;;;4.75;;
51915;SDS011;37942;53.218;6.548;2022-07-29T11:54:42;9.88;;;4.53;;
51915;SDS011;37942;53.218;6.548;2022-07-29T11:57:08;15.32;;;4.60;;
51915;SDS011;37942;53.218;6.548;2022-07-29T11:59:41;12.35;;;4.28;;
51915;SDS011;37942;53.218;6.548;2022-07-29T12:02:08;11.30;;;4.05;;
51915;SDS011;37942;53.218;6.548;2022-07-29T12:04:53;14.98;;;5.15;;
51915;SDS011;37942;53.218;6.548;2022-07-29T12:07:33;13.02;;;4.82;;
51915;SDS011;37942;53.218;6.548;2022-07-29T12:09:59;11.65;;;4.05;;
51915;SDS011;37942;53.218;6.548;2022-07-29T12:12:25;12.27;;;4.57;;
51915;SDS011;37942;53.218;6.548;2022-07-29T12:19:52;12.35;;;4.03;;
51915;SDS011;37942;53.218;6.548;2022-07-29T12:22:28;12.27;;;4.18;;
51915;SDS011;37942;53.218;6.548;2022-07-29T12:24:55;12.40;;;4.78;;
51915;SDS011;37942;53.218;6.548;2022-07-29T12:27:21;18.35;;;3.95;;
51915;SDS011;37942;53.218;6.548;2022-07-29T12:29:55;15.43;;;4.38;;
51915;SDS011;37942;53.218;6.548;2022-07-29T12:32:21;13.20;;;4.22;;
51915;SDS011;37942;53.218;6.548;2022-07-29T12:34:48;12.57;;;4.25;;
51915;SDS011;37942;53.218;6.548;2022-07-29T12:37:15;12.55;;;4.10;;
51915;SDS011;37942;53.218;6.548;2022-07-29T12:39:41;15.18;;;4.30;;
51915;SDS011;37942;53.218;6.548;2022-07-29T12:44:49;13.80;;;4.05;;
51915;SDS011;37942;53.218;6.548;2022-07-29T12:47:16;12.45;;;3.42;;
51915;SDS011;37942;53.218;6.548;2022-07-29T12:49:45;17.48;;;3.63;;
51915;SDS011;37942;53.218;6.548;2022-07-29T12:54:50;14.63;;;3.70;;
51915;SDS011;37942;53.218;6.548;2022-07-29T12:57:16;17.45;;;3.80;;
51915;SDS011;37942;53.218;6.548;2022-07-29T13:02:19;12.15;;;4.00;;
51915;SDS011;37942;53.218;6.548;2022-07-29T13:04:54;10.10;;;3.78;;
51915;SDS011;37942;53.218;6.548;2022-07-29T13:07:25;15.00;;;4.00;;
51915;SDS011;37942;53.218;6.548;2022-07-29T13:09:52;13.75;;;3.83;;
51915;SDS011;37942;53.218;6.548;2022-07-29T13:12:18;12.95;;;3.47;;
51915;SDS011;37942;53.218;6.548;2022-07-29T13:14:48;11.35;;;3.25;;
51915;SDS011;37942;53.218;6.548;2022-07-29T13:19:52;11.07;;;3.30;;
51915;SDS011;37942;53.218;6.548;2022-07-29T13:22:19;11.88;;;3.58;;
51915;SDS011;37942;53.218;6.548;2022-07-29T13:24:56;12.43;;;4.20;;
51915;SDS011;37942;53.218;6.548;2022-07-29T13:27:23;12.75;;;4.28;;
51915;SDS011;37942;53.218;6.548;2022-07-29T13:29:49;14.52;;;4.20;;
51915;SDS011;37942;53.218;6.548;2022-07-29T13:32:17;12.57;;;3.92;;
51915;SDS011;37942;53.218;6.548;2022-07-29T13:34:43;14.05;;;3.95;;
51915;SDS011;37942;53.218;6.548;2022-07-29T13:39:35;13.52;;;3.72;;
51915;SDS011;37942;53.218;6.548;2022-07-29T13:42:02;11.95;;;3.83;;
51915;SDS011;37942;53.218;6.548;2022-07-29T13:44:28;13.55;;;3.90;;
51915;SDS011;37942;53.218;6.548;2022-07-29T13:46:55;11.35;;;3.47;;
51915;SDS011;37942;53.218;6.548;2022-07-29T13:49:21;12.15;;;4.03;;
51915;SDS011;37942;53.218;6.548;2022-07-29T13:51:48;11.82;;;3.65;;
51915;SDS011;37942;53.218;6.548;2022-07-29T13:54:14;14.10;;;4.00;;
51915;SDS011;37942;53.218;6.548;2022-07-29T13:59:06;12.05;;;3.78;;
51915;SDS011;37942;53.218;6.548;2022-07-29T14:01:33;11.77;;;4.03;;
51915;SDS011;37942;53.218;6.548;2022-07-29T14:03:59;13.07;;;3.67;;
51915;SDS011;37942;53.218;6.548;2022-07-29T14:08:51;13.27;;;4.38;;
51915;SDS011;37942;53.218;6.548;2022-07-29T14:11:17;13.98;;;3.65;;
51915;SDS011;37942;53.218;6.548;2022-07-29T14:13:43;13.18;;;3.70;;
51915;SDS011;37942;53.218;6.548;2022-07-29T14:16:09;13.07;;;3.80;;
51915;SDS011;37942;53.218;6.548;2022-07-29T14:18:35;13.98;;;3.42;;
51915;SDS011;37942;53.218;6.548;2022-07-29T14:23:27;10.98;;;3.30;;
51915;SDS011;37942;53.218;6.548;2022-07-29T14:28:19;9.68;;;3.05;;
51915;SDS011;37942;53.218;6.548;2022-07-29T14:33:11;14.82;;;2.65;;
51915;SDS011;37942;53.218;6.548;2022-07-29T14:35:38;12.13;;;3.58;;
51915;SDS011;37942;53.218;6.548;2022-07-29T14:38:04;13.13;;;3.30;;
51915;SDS011;37942;53.218;6.548;2022-07-29T14:42:56;8.73;;;3.10;;
51915;SDS011;37942;53.218;6.548;2022-07-29T14:47:48;13.65;;;3.00;;
51915;SDS011;37942;53.218;6.548;2022-07-29T14:50:15;10.73;;;3.10;;
51915;SDS011;37942;53.218;6.548;2022-07-29T14:52:43;10.10;;;3.53;;
51915;SDS011;37942;53.218;6.548;2022-07-29T14:57:35;13.18;;;3.88;;
51915;SDS011;37942;53.218;6.548;2022-07-29T15:02:27;11.55;;;3.65;;
51915;SDS011;37942;53.218;6.548;2022-07-29T15:07:19;10.05;;;3.20;;
51915;SDS011;37942;53.218;6.548;2022-07-29T15:12:11;10.48;;;3.63;;
51915;SDS011;37942;53.218;6.548;2022-07-29T15:14:38;9.40;;;3.05;;
51915;SDS011;37942;53.218;6.548;2022-07-29T15:17:04;14.30;;;3.50;;
51915;SDS011;37942;53.218;6.548;2022-07-29T15:19:30;12.00;;;3.83;;
51915;SDS011;37942;53.218;6.548;2022-07-29T15:21:56;13.00;;;3.35;;
51915;SDS011;37942;53.218;6.548;2022-07-29T15:24:22;11.35;;;3.28;;
51915;SDS011;37942;53.218;6.548;2022-07-29T15:26:48;9.93;;;3.65;;
51915;SDS011;37942;53.218;6.548;2022-07-29T15:29:14;12.38;;;4.00;;
51915;SDS011;37942;53.218;6.548;2022-07-29T15:31:40;11.48;;;3.38;;
51915;SDS011;37942;53.218;6.548;2022-07-29T15:36:32;10.07;;;3.50;;
51915;SDS011;37942;53.218;6.548;2022-07-29T15:38:59;12.38;;;3.40;;
51915;SDS011;37942;53.218;6.548;2022-07-29T15:41:25;9.00;;;3.15;;
51915;SDS011;37942;53.218;6.548;2022-07-29T15:43:51;17.02;;;3.20;;
51915;SDS011;37942;53.218;6.548;2022-07-29T15:46:18;10.20;;;3.10;;
51915;SDS011;37942;53.218;6.548;2022-07-29T15:49:04;10.05;;;3.00;;
51915;SDS011;37942;53.218;6.548;2022-07-29T15:51:30;9.93;;;2.97;;
51915;SDS011;37942;53.218;6.548;2022-07-29T15:53:56;12.18;;;3.40;;
51915;SDS011;37942;53.218;6.548;2022-07-29T15:56:23;10.43;;;3.10;;
51915;SDS011;37942;53.218;6.548;2022-07-29T15:58:49;12.00;;;3.60;;
51915;SDS011;37942;53.218;6.548;2022-07-29T16:01:15;11.32;;;3.80;;
51915;SDS011;37942;53.218;6.548;2022-07-29T16:03:42;9.95;;;2.90;;
51915;SDS011;37942;53.218;6.548;2022-07-29T16:06:08;10.55;;;3.30;;
51915;SDS011;37942;53.218;6.548;2022-07-29T16:08:34;12.07;;;3.38;;
51915;SDS011;37942;53.218;6.548;2022-07-29T16:11:01;11.20;;;3.05;;
51915;SDS011;37942;53.218;6.548;2022-07-29T16:13:27;9.55;;;3.03;;
51915;SDS011;37942;53.218;6.548;2022-07-29T16:15:53;9.48;;;3.22;;
51915;SDS011;37942;53.218;6.548;2022-07-29T16:18:19;11.05;;;3.13;;
51915;SDS011;37942;53.218;6.548;2022-07-29T16:20:45;9.82;;;3.20;;
51915;SDS011;37942;53.218;6.548;2022-07-29T16:23:11;13.10;;;3.78;;
51915;SDS011;37942;53.218;6.548;2022-07-29T16:25:37;12.75;;;3.47;;
51915;SDS011;37942;53.218;6.548;2022-07-29T16:28:04;11.68;;;3.22;;
51915;SDS011;37942;53.218;6.548;2022-07-29T16:30:30;8.75;;;2.92;;
51915;SDS011;37942;53.218;6.548;2022-07-29T16:32:56;8.75;;;3.08;;
51915;SDS011;37942;53.218;6.548;2022-07-29T16:35:22;12.98;;;3.95;;
51915;SDS011;37942;53.218;6.548;2022-07-29T16:37:48;11.07;;;3.00;;
51915;SDS011;37942;53.218;6.548;2022-07-29T16:40:15;10.65;;;3.00;;
51915;SDS011;37942;53.218;6.548;2022-07-29T16:42:41;10.00;;;3.55;;
51915;SDS011;37942;53.218;6.548;2022-07-29T16:45:07;11.68;;;3.70;;
51915;SDS011;37942;53.218;6.548;2022-07-29T16:47:33;10.88;;;3.80;;
51915;SDS011;37942;53.218;6.548;2022-07-29T16:49:59;12.73;;;3.50;;
51915;SDS011;37942;53.218;6.548;2022-07-29T16:52:25;13.23;;;4.13;;
51915;SDS011;37942;53.218;6.548;2022-07-29T16:54:51;15.30;;;3.78;;
51915;SDS011;37942;53.218;6.548;2022-07-29T16:57:17;11.93;;;3.88;;
51915;SDS011;37942;53.218;6.548;2022-07-29T16:59:43;17.98;;;3.60;;
51915;SDS011;37942;53.218;6.548;2022-07-29T17:02:09;11.43;;;4.03;;
51915;SDS011;37942;53.218;6.548;2022-07-29T17:04:36;15.07;;;4.05;;
51915;SDS011;37942;53.218;6.548;2022-07-29T17:07:02;12.48;;;3.70;;
51915;SDS011;37942;53.218;6.548;2022-07-29T17:09:28;11.38;;;4.20;;
51915;SDS011;37942;53.218;6.548;2022-07-29T17:11:54;14.30;;;4.20;;
51915;SDS011;37942;53.218;6.548;2022-07-29T17:16:48;10.80;;;3.33;;
51915;SDS011;37942;53.218;6.548;2022-07-29T17:19:15;10.77;;;3.60;;